createdAt,value
2023-02-11T00:01:26.459Z,9.20
2023-02-11T00:03:54.111Z,8.40
2023-02-11T00:06:24.718Z,7.80
2023-02-11T00:08:51.876Z,8.40
2023-02-11T00:11:22.223Z,8.40
2023-02-11T00:13:49.563Z,9.70
2023-02-11T00:16:20.689Z,8.30
2023-02-11T00:18:53.003Z,8.30
2023-02-11T00:21:25.922Z,8.30
2023-02-11T00:23:54.873Z,8.80
2023-02-11T00:26:27.511Z,9.60
2023-02-11T00:28:54.715Z,9.70
2023-02-11T00:31:23.674Z,8.20
2023-02-11T00:33:51.325Z,8.30
2023-02-11T00:36:29.582Z,10.50
2023-02-11T00:38:58.590Z,8.30
2023-02-11T00:41:26.442Z,8.30
2023-02-11T00:43:54.091Z,8.30
2023-02-11T00:46:21.766Z,8.40
2023-02-11T00:48:51.782Z,7.90
2023-02-11T00:51:21.605Z,10.20
2023-02-11T00:55:29.156Z,8.40
2023-02-11T00:58:22.548Z,8.50
2023-02-11T01:00:49.836Z,9.20
2023-02-11T01:03:16.698Z,8.50
2023-02-11T01:05:43.669Z,10.00
2023-02-11T01:08:10.697Z,8.50
2023-02-11T01:10:38.060Z,10.70
2023-02-11T01:13:06.585Z,8.60
2023-02-11T01:15:34.086Z,8.60
2023-02-11T01:18:01.109Z,8.60
2023-02-11T01:20:29.647Z,8.60
2023-02-11T01:22:57.134Z,8.60
2023-02-11T01:25:24.073Z,10.00
2023-02-11T01:27:51.030Z,8.70
2023-02-11T01:30:18.026Z,8.70
2023-02-11T01:32:47.585Z,9.90
2023-02-11T01:35:15.065Z,8.70
2023-02-11T01:37:42.087Z,10.70
2023-02-11T01:40:16.971Z,11.10
2023-02-11T01:42:44.841Z,8.70
2023-02-11T01:45:48.919Z,9.40
2023-02-11T01:48:34.131Z,8.80
2023-02-11T01:51:09.175Z,10.40
2023-02-11T01:53:57.136Z,8.80
2023-02-11T01:56:46.078Z,11.00
2023-02-11T01:59:32.151Z,8.80
2023-02-11T02:02:06.339Z,8.70
2023-02-11T02:04:44.145Z,8.70
2023-02-11T02:07:36.669Z,10.20
2023-02-11T02:10:17.287Z,8.70
2023-02-11T02:12:44.457Z,10.00
2023-02-11T02:15:32.282Z,8.70
2023-02-11T02:18:43.229Z,8.70
2023-02-11T02:21:45.270Z,8.70
2023-02-11T02:24:56.700Z,8.70
2023-02-11T02:28:06.665Z,8.70
2023-02-11T02:30:52.340Z,8.70
2023-02-11T02:33:50.033Z,8.70
2023-02-11T02:36:44.109Z,8.70
2023-02-11T02:39:24.016Z,8.70
2023-02-11T02:41:54.468Z,9.30
2023-02-11T02:44:22.278Z,10.00
2023-02-11T02:46:49.645Z,8.60
2023-02-11T02:49:17.795Z,8.60
2023-02-11T02:52:04.269Z,8.60
2023-02-11T02:54:58.071Z,8.60
2023-02-11T02:57:51.292Z,8.60
2023-02-11T03:00:46.970Z,8.60
2023-02-11T03:03:13.892Z,8.60
2023-02-11T03:05:51.099Z,8.60
2023-02-11T03:08:46.018Z,8.60
2023-02-11T03:11:19.308Z,8.60
2023-02-11T03:13:49.668Z,8.60
2023-02-11T03:16:28.332Z,8.60
2023-02-11T03:19:20.423Z,8.60
2023-02-11T03:21:52.042Z,8.70
2023-02-11T03:24:30.645Z,8.60
2023-02-11T03:27:04.950Z,8.60
2023-02-11T03:29:43.453Z,8.60
2023-02-11T03:32:28.179Z,8.70
2023-02-11T03:35:29.146Z,8.70
2023-02-11T03:38:04.336Z,8.70
2023-02-11T03:40:41.270Z,8.80
2023-02-11T03:43:30.930Z,8.70
2023-02-11T03:46:00.340Z,8.70
2023-02-11T03:48:52.426Z,10.70
2023-02-11T03:51:24.146Z,8.70
2023-02-11T03:53:55.831Z,9.00
2023-02-11T03:56:30.118Z,10.10
2023-02-11T03:58:57.771Z,8.70
2023-02-11T04:01:24.855Z,8.70
2023-02-11T04:03:51.873Z,9.40
2023-02-11T04:06:19.706Z,8.80
2023-02-11T04:08:46.733Z,8.80
2023-02-11T04:11:13.733Z,8.80
2023-02-11T04:13:40.766Z,8.80
2023-02-11T04:16:08.039Z,10.60
2023-02-11T04:18:35.080Z,8.80
2023-02-11T04:21:02.032Z,8.80
2023-02-11T04:23:29.170Z,8.80
2023-02-11T04:25:56.190Z,9.70
2023-02-11T04:28:23.429Z,9.00
2023-02-11T04:30:51.595Z,9.40
2023-02-11T04:33:18.743Z,8.90
2023-02-11T04:35:45.756Z,8.80
2023-02-11T04:38:13.370Z,8.80
2023-02-11T04:40:40.537Z,8.80
2023-02-11T04:43:07.893Z,8.80
2023-02-11T04:45:35.172Z,10.00
2023-02-11T04:48:03.812Z,10.40
2023-02-11T04:50:31.156Z,8.90
2023-02-11T04:52:58.406Z,8.80
2023-02-11T04:55:25.447Z,8.80
2023-02-11T04:57:52.440Z,10.20
2023-02-11T05:00:19.537Z,9.90
2023-02-11T05:02:46.581Z,8.80
2023-02-11T05:05:13.744Z,8.90
2023-02-11T05:07:41.080Z,8.80
2023-02-11T05:10:08.551Z,8.90
2023-02-11T05:12:35.547Z,8.90
2023-02-11T05:15:02.592Z,8.90
2023-02-11T05:17:29.673Z,8.90
2023-02-11T05:19:57.572Z,8.90
2023-02-11T05:22:24.527Z,8.90
2023-02-11T05:24:51.489Z,8.90
2023-02-11T05:27:18.458Z,8.90
2023-02-11T05:29:45.457Z,10.50
2023-02-11T05:32:12.432Z,8.90
2023-02-11T05:34:39.843Z,9.00
2023-02-11T05:37:06.799Z,8.90
2023-02-11T05:39:34.088Z,8.60
2023-02-11T05:42:01.317Z,10.20
2023-02-11T05:44:28.646Z,8.90
2023-02-11T05:46:55.680Z,8.90
2023-02-11T05:49:23.034Z,8.90
2023-02-11T05:51:49.987Z,8.90
2023-02-11T05:54:17.436Z,10.00
2023-02-11T05:56:44.997Z,10.70
2023-02-11T05:59:14.891Z,8.90
2023-02-11T06:01:42.326Z,10.80
2023-02-11T06:04:10.751Z,9.00
2023-02-11T06:06:38.985Z,8.90
2023-02-11T06:09:05.984Z,8.90
2023-02-11T06:11:32.955Z,9.10
2023-02-11T06:14:01.077Z,9.10
2023-02-11T06:16:28.241Z,10.80
2023-02-11T06:18:56.348Z,9.10
2023-02-11T06:21:26.472Z,7.70
2023-02-11T06:23:57.844Z,9.80
2023-02-11T06:26:25.082Z,9.00
2023-02-11T06:28:52.093Z,9.00
2023-02-11T06:31:19.210Z,9.00
2023-02-11T06:33:46.256Z,9.50
2023-02-11T06:36:20.658Z,9.00
2023-02-11T06:38:49.377Z,9.00
2023-02-11T06:41:20.317Z,9.40
2023-02-11T06:43:49.270Z,10.60
2023-02-11T06:46:18.889Z,9.10
2023-02-11T06:48:45.954Z,9.00
2023-02-11T06:51:15.049Z,9.00
2023-02-11T06:53:47.337Z,9.10
2023-02-11T06:56:19.543Z,9.00
2023-02-11T06:58:47.725Z,10.80
2023-02-11T07:01:16.429Z,9.10
2023-02-11T07:03:46.112Z,9.10
2023-02-11T07:06:21.066Z,10.50
2023-02-11T07:08:49.557Z,9.10
2023-02-11T07:11:21.108Z,9.10
2023-02-11T07:13:48.278Z,9.10
2023-02-11T07:16:19.005Z,9.80
2023-02-11T07:18:48.170Z,9.10
2023-02-11T07:21:19.671Z,10.90
2023-02-11T07:23:48.631Z,9.20
2023-02-11T07:26:19.819Z,9.20
2023-02-11T07:28:47.043Z,9.20
2023-02-11T07:31:24.796Z,9.20
2023-02-11T07:33:57.691Z,9.20
2023-02-11T07:36:24.919Z,9.20
2023-02-11T07:38:52.076Z,9.20
2023-02-11T07:41:22.422Z,9.30
2023-02-11T07:43:50.629Z,11.20
2023-02-11T07:46:25.535Z,9.30
2023-02-11T07:48:53.509Z,10.30
2023-02-11T07:51:30.518Z,9.30
2023-02-11T07:54:00.510Z,9.40
2023-02-11T07:56:30.795Z,10.00
2023-02-11T07:59:02.443Z,9.40
2023-02-11T08:01:34.330Z,10.40
2023-02-11T08:04:03.865Z,9.40
2023-02-11T08:06:34.404Z,10.10
2023-02-11T08:09:07.899Z,9.50
2023-02-11T08:11:35.313Z,9.60
2023-02-11T08:14:02.323Z,9.60
2023-02-11T08:16:35.082Z,10.70
2023-02-11T08:19:13.624Z,9.60
2023-02-11T08:21:41.408Z,11.30
2023-02-11T08:24:12.074Z,9.60
2023-02-11T08:26:39.232Z,11.60
2023-02-11T08:29:11.625Z,9.70
2023-02-11T08:31:43.507Z,9.70
2023-02-11T08:34:19.071Z,10.00
2023-02-11T08:36:50.856Z,9.80
2023-02-11T08:39:22.828Z,9.80
2023-02-11T08:41:54.013Z,9.80
2023-02-11T08:44:22.526Z,9.80
2023-02-11T08:46:50.897Z,9.90
2023-02-11T08:49:18.801Z,9.90
2023-02-11T08:51:46.857Z,9.90
2023-02-11T08:54:14.528Z,9.90
2023-02-11T08:56:41.983Z,10.00
2023-02-11T08:59:13.884Z,10.00
2023-02-11T09:01:44.737Z,10.00
2023-02-11T09:04:12.016Z,10.10
2023-02-11T09:06:39.456Z,10.10
2023-02-11T09:09:06.725Z,10.10
2023-02-11T09:11:36.546Z,10.10
2023-02-11T09:14:04.962Z,10.20
2023-02-11T09:16:35.914Z,10.20
2023-02-11T09:19:05.733Z,10.20
2023-02-11T09:21:33.044Z,10.30
2023-02-11T09:24:00.037Z,10.30
2023-02-11T09:26:33.806Z,11.50
2023-02-11T09:29:02.362Z,10.30
2023-02-11T09:31:31.936Z,10.30
2023-02-11T09:34:03.826Z,12.10
2023-02-11T09:36:37.439Z,10.40
2023-02-11T09:39:07.665Z,10.30
2023-02-11T09:42:08.305Z,11.60
2023-02-11T09:44:38.935Z,10.60
2023-02-11T09:48:13.383Z,10.40
2023-02-11T09:50:47.313Z,10.50
2023-02-11T09:53:14.441Z,10.50
2023-02-11T09:55:50.619Z,10.60
2023-02-11T09:58:30.394Z,10.60
2023-02-11T10:01:44.621Z,12.30
2023-02-11T10:04:29.435Z,10.60
2023-02-11T10:07:43.043Z,10.70
2023-02-11T10:10:31.532Z,10.70
2023-02-11T10:13:34.842Z,10.70
2023-02-11T10:16:41.932Z,10.80
2023-02-11T10:19:47.655Z,10.80
2023-02-11T10:22:36.069Z,10.80
2023-02-11T10:25:40.513Z,10.90
2023-02-11T10:28:22.450Z,11.00
2023-02-11T10:31:11.104Z,11.00
2023-02-11T10:33:59.455Z,11.10
2023-02-11T10:36:34.411Z,11.10
2023-02-11T10:39:13.676Z,11.10
2023-02-11T10:41:47.504Z,11.20
2023-02-11T10:44:33.599Z,11.20
2023-02-11T10:47:13.611Z,11.20
2023-02-11T10:49:47.026Z,11.20
2023-02-11T10:52:27.167Z,11.20
2023-02-11T10:55:23.891Z,11.20
2023-02-11T10:58:00.913Z,11.30
2023-02-11T11:00:42.650Z,11.30
2023-02-11T11:03:25.941Z,12.90
2023-02-11T11:05:58.695Z,11.90
2023-02-11T11:08:45.680Z,11.40
2023-02-11T11:11:22.499Z,11.50
2023-02-11T11:14:01.334Z,11.40
2023-02-11T11:16:36.970Z,11.80
2023-02-11T11:19:06.712Z,11.50
2023-02-11T11:21:48.113Z,11.50
2023-02-11T11:24:33.685Z,11.10
2023-02-11T11:27:04.246Z,11.50
2023-02-11T11:29:39.361Z,12.20
2023-02-11T11:32:20.616Z,11.50
2023-02-11T11:35:01.225Z,11.60
2023-02-11T11:37:38.262Z,11.60
2023-02-11T11:40:27.813Z,11.60
2023-02-11T11:43:17.118Z,11.70
2023-02-11T11:45:59.195Z,11.70
2023-02-11T11:48:37.744Z,11.70
2023-02-11T11:51:11.036Z,11.80
2023-02-11T11:53:54.995Z,11.80
2023-02-11T11:56:35.733Z,11.80
2023-02-11T11:59:14.888Z,11.90
2023-02-11T12:01:47.961Z,12.70
2023-02-11T12:04:24.290Z,11.90
2023-02-11T12:07:12.880Z,11.90
2023-02-11T12:09:57.758Z,11.90
2023-02-11T12:12:49.672Z,12.00
2023-02-11T12:15:54.577Z,12.00
2023-02-11T12:18:47.503Z,12.00
2023-02-11T12:21:58.911Z,12.00
2023-02-11T12:25:08.741Z,12.10
2023-02-11T12:28:07.917Z,12.10
2023-02-11T12:31:13.725Z,12.10
2023-02-11T12:34:14.131Z,13.20
2023-02-11T12:37:08.094Z,12.20
2023-02-11T12:40:16.590Z,12.20
2023-02-11T12:43:16.749Z,12.20
2023-02-11T12:46:36.945Z,12.30
2023-02-11T12:49:56.485Z,12.30
2023-02-11T12:52:58.819Z,12.40
2023-02-11T12:55:36.919Z,12.40
2023-02-11T12:58:06.449Z,13.20
2023-02-11T13:00:53.621Z,14.00
2023-02-11T13:03:53.442Z,13.10
2023-02-11T13:06:53.715Z,12.60
2023-02-11T13:09:29.414Z,12.70
2023-02-11T13:12:22.570Z,13.40
2023-02-11T13:14:54.519Z,12.90
2023-02-11T13:17:36.543Z,13.00
2023-02-11T13:20:37.064Z,13.20
2023-02-11T13:23:37.223Z,13.30
2023-02-11T13:26:31.139Z,13.40
2023-02-11T13:29:25.895Z,13.50
2023-02-11T13:32:10.320Z,13.60
2023-02-11T13:34:43.519Z,13.70
2023-02-11T13:37:24.224Z,13.80
2023-02-11T13:40:22.371Z,14.00
2023-02-11T13:43:00.183Z,13.80
2023-02-11T13:45:46.240Z,13.80
2023-02-11T13:48:24.572Z,13.90
2023-02-11T13:50:57.629Z,13.90
2023-02-11T13:53:25.578Z,15.00
2023-02-11T13:56:09.423Z,15.90
2023-02-11T13:58:51.064Z,13.80
2023-02-11T14:02:07.142Z,13.90
2023-02-11T14:04:53.097Z,13.90
2023-02-11T14:07:52.703Z,13.80
2023-02-11T14:10:52.297Z,13.80
2023-02-11T14:13:34.510Z,13.70
2023-02-11T14:16:11.644Z,13.90
2023-02-11T14:18:44.639Z,15.30
2023-02-11T14:21:32.329Z,13.70
2023-02-11T14:24:03.135Z,13.70
2023-02-11T14:27:21.430Z,13.70
2023-02-11T14:30:11.418Z,13.70
2023-02-11T14:32:58.010Z,13.70
2023-02-11T14:36:06.923Z,13.60
2023-02-11T14:38:58.259Z,13.50
2023-02-11T14:41:46.914Z,13.50
2023-02-11T14:44:26.866Z,13.40
2023-02-11T14:46:56.282Z,13.40
2023-02-11T14:49:35.575Z,13.40
2023-02-11T14:52:29.959Z,13.40
2023-02-11T14:55:07.403Z,13.30
2023-02-11T14:57:35.149Z,13.30
2023-02-11T15:00:14.800Z,13.40
2023-02-11T15:02:44.613Z,13.30
2023-02-11T15:05:22.728Z,13.20
2023-02-11T15:08:03.731Z,13.20
2023-02-11T15:10:43.008Z,13.20
2023-02-11T15:13:20.434Z,13.20
2023-02-11T15:15:55.554Z,13.20
2023-02-11T15:18:32.972Z,13.10
2023-02-11T15:21:00.661Z,14.30
2023-02-11T15:23:30.977Z,13.10
2023-02-11T15:26:03.063Z,13.00
2023-02-11T15:28:34.815Z,13.40
2023-02-11T15:31:18.229Z,13.40
2023-02-11T15:33:46.175Z,14.60
2023-02-11T15:36:15.470Z,13.90
2023-02-11T15:38:42.611Z,12.90
2023-02-11T15:41:39.031Z,13.70
2023-02-11T15:44:06.140Z,12.90
2023-02-11T15:46:40.453Z,12.90
2023-02-11T15:49:19.370Z,12.80
2023-02-11T15:51:47.284Z,12.80
2023-02-11T15:54:22.447Z,13.20
2023-02-11T15:56:52.448Z,13.60
2023-02-11T15:59:35.305Z,12.80
2023-02-11T16:02:22.191Z,12.70
2023-02-11T16:05:03.779Z,12.70
2023-02-11T16:07:49.814Z,12.60
2023-02-11T16:10:34.390Z,12.60
2023-02-11T16:13:07.553Z,12.60
2023-02-11T16:15:34.406Z,12.50
2023-02-11T16:18:40.177Z,12.50
2023-02-11T16:21:19.356Z,12.50
2023-02-11T16:23:53.669Z,12.80
2023-02-11T16:26:43.500Z,12.40
2023-02-11T16:29:21.979Z,14.00
2023-02-11T16:31:50.370Z,13.50
2023-02-11T16:34:18.717Z,12.30
2023-02-11T16:36:47.582Z,12.30
2023-02-11T16:39:16.805Z,12.30
2023-02-11T16:41:44.417Z,12.20
2023-02-11T16:44:11.396Z,12.30
2023-02-11T16:46:39.990Z,12.20
2023-02-11T16:49:21.106Z,13.70
2023-02-11T16:51:51.623Z,12.10
2023-02-11T16:54:20.086Z,12.10
2023-02-11T16:56:47.356Z,13.40
2023-02-11T16:59:14.585Z,12.10
2023-02-11T17:01:43.957Z,12.00
2023-02-11T17:04:24.672Z,13.30
2023-02-11T17:06:51.940Z,12.00
2023-02-11T17:09:27.753Z,12.00
2023-02-11T17:11:56.082Z,12.00
2023-02-11T17:14:23.281Z,12.10
2023-02-11T17:16:50.365Z,12.10
2023-02-11T17:19:21.083Z,12.10
2023-02-11T17:21:52.096Z,10.60
2023-02-11T17:24:21.255Z,12.00
2023-02-11T17:26:49.460Z,12.70
2023-02-11T17:29:21.826Z,11.80
2023-02-11T17:31:49.470Z,11.80
2023-02-11T17:34:17.960Z,11.80
2023-02-11T17:36:45.354Z,12.20
2023-02-11T17:39:12.722Z,11.80
2023-02-11T17:41:41.194Z,11.70
2023-02-11T17:44:12.450Z,12.20
2023-02-11T17:46:39.744Z,11.60
2023-02-11T17:49:06.676Z,11.60
2023-02-11T17:51:38.252Z,11.60
2023-02-11T17:54:11.795Z,11.60
2023-02-11T17:56:40.217Z,11.60
2023-02-11T17:59:11.906Z,11.60
2023-02-11T18:01:41.925Z,12.00
2023-02-11T18:04:15.280Z,11.60
2023-02-11T18:06:42.685Z,11.50
2023-02-11T18:09:10.424Z,11.60
2023-02-11T18:11:42.535Z,11.50
2023-02-11T18:14:11.128Z,11.50
2023-02-11T18:16:39.773Z,11.50
2023-02-11T18:19:07.719Z,11.90
2023-02-11T18:21:34.888Z,11.50
2023-02-11T18:24:06.448Z,12.80
2023-02-11T18:26:34.639Z,13.00
2023-02-11T18:29:03.764Z,11.30
2023-02-11T18:31:30.963Z,11.30
2023-02-11T18:33:57.947Z,11.30
2023-02-11T18:36:24.930Z,11.20
2023-02-11T18:38:53.606Z,12.00
2023-02-11T18:41:21.108Z,13.00
2023-02-11T18:43:48.581Z,11.40
2023-02-11T18:46:16.281Z,11.80
2023-02-11T18:48:44.963Z,12.80
2023-02-11T18:51:18.936Z,12.30
2023-02-11T18:53:47.486Z,12.90
2023-02-11T18:56:20.232Z,11.10
2023-02-11T18:58:49.227Z,11.10
2023-02-11T19:01:26.869Z,11.10
2023-02-11T19:03:57.444Z,11.10
2023-02-11T19:06:32.817Z,11.10
2023-02-11T19:09:05.643Z,11.10
2023-02-11T19:11:49.743Z,11.50
2023-02-11T19:14:23.241Z,11.00
2023-02-11T19:16:53.219Z,11.00
2023-02-11T19:19:23.179Z,11.00
2023-02-11T19:21:50.333Z,11.00
2023-02-11T19:24:19.961Z,11.20
2023-02-11T19:26:52.421Z,11.00
2023-02-11T19:29:19.742Z,11.00
2023-02-11T19:31:47.108Z,11.00
2023-02-11T19:34:17.310Z,11.00
2023-02-11T19:36:44.458Z,10.90
2023-02-11T19:39:12.684Z,10.90
2023-02-11T19:41:39.847Z,10.90
2023-02-11T19:44:08.059Z,10.90
2023-02-11T19:46:38.919Z,10.90
2023-02-11T19:49:06.689Z,11.80
2023-02-11T19:51:35.721Z,10.90
2023-02-11T19:54:03.596Z,10.90
2023-02-11T19:56:30.568Z,11.00
2023-02-11T19:58:58.347Z,10.90
2023-02-11T20:01:26.356Z,11.40
2023-02-11T20:03:56.998Z,12.10
2023-02-11T20:06:29.874Z,10.90
2023-02-11T20:09:04.357Z,11.90
2023-02-11T20:11:32.764Z,10.80
2023-02-11T20:14:00.846Z,10.90
2023-02-11T20:16:46.969Z,11.60
2023-02-11T20:19:21.877Z,11.00
2023-02-11T20:21:52.616Z,10.80
2023-02-11T20:24:20.185Z,11.20
2023-02-11T20:26:48.785Z,10.80
2023-02-11T20:29:17.608Z,10.80
2023-02-11T20:31:44.846Z,10.80
2023-02-11T20:34:12.614Z,11.40
2023-02-11T20:36:40.655Z,11.50
2023-02-11T20:39:08.251Z,12.20
2023-02-11T20:41:39.872Z,12.60
2023-02-11T20:44:10.711Z,10.80
2023-02-11T20:46:40.565Z,10.90
2023-02-11T20:49:11.332Z,10.70
2023-02-11T20:51:39.570Z,10.70
2023-02-11T20:54:10.742Z,10.70
2023-02-11T20:56:39.386Z,10.80
2023-02-11T20:59:06.943Z,10.70
2023-02-11T21:01:40.827Z,11.60
2023-02-11T21:04:20.726Z,12.10
2023-02-11T21:06:55.332Z,11.80
2023-02-11T21:09:26.913Z,11.40
2023-02-11T21:11:54.901Z,12.40
2023-02-11T21:14:24.648Z,11.50
2023-02-11T21:16:52.810Z,10.60
2023-02-11T21:19:20.318Z,11.60
2023-02-11T21:21:47.500Z,10.70
2023-02-11T21:24:15.256Z,10.70
2023-02-11T21:26:42.484Z,10.60
2023-02-11T21:29:10.723Z,10.60
2023-02-11T21:31:38.851Z,10.70
2023-02-11T21:34:07.331Z,10.70
2023-02-11T21:36:34.617Z,10.70
2023-02-11T21:39:03.836Z,11.70
2023-02-11T21:41:31.374Z,10.70
2023-02-11T21:43:58.435Z,10.60
2023-02-11T21:46:27.727Z,10.70
2023-02-11T21:48:54.801Z,10.70
2023-02-11T21:51:27.842Z,12.50
2023-02-11T21:53:56.798Z,10.70
2023-02-11T21:56:28.457Z,10.90
2023-02-11T21:58:59.020Z,10.70
2023-02-11T22:01:32.727Z,10.70
2023-02-11T22:04:00.219Z,10.70
2023-02-11T22:06:31.030Z,10.70
2023-02-11T22:09:01.690Z,10.70
2023-02-11T22:11:28.797Z,10.70
2023-02-11T22:13:57.931Z,11.20
2023-02-11T22:16:26.952Z,10.70
2023-02-11T22:18:55.894Z,10.70
2023-02-11T22:21:23.663Z,10.70
2023-02-11T22:23:51.907Z,11.60
2023-02-11T22:26:22.964Z,10.70
2023-02-11T22:28:51.650Z,10.70
2023-02-11T22:31:31.556Z,11.80
2023-02-11T22:34:00.149Z,10.60
2023-02-11T22:36:40.427Z,10.80
2023-02-11T22:39:12.980Z,10.60
2023-02-11T22:41:45.166Z,10.60
2023-02-11T22:44:12.833Z,10.60
2023-02-11T22:46:40.926Z,10.60
2023-02-11T22:49:07.957Z,10.60
2023-02-11T22:51:34.953Z,10.50
2023-02-11T22:54:05.710Z,10.60
2023-02-11T22:56:35.076Z,10.60
2023-02-11T22:59:06.278Z,10.90
2023-02-11T23:01:35.239Z,10.60
2023-02-11T23:04:05.761Z,10.60
2023-02-11T23:06:34.451Z,11.70
2023-02-11T23:09:06.396Z,12.30
2023-02-11T23:11:34.197Z,10.70
2023-02-11T23:14:03.054Z,11.30
2023-02-11T23:16:34.122Z,11.90
2023-02-11T23:19:08.070Z,10.50
2023-02-11T23:21:37.473Z,10.60
2023-02-11T23:24:12.015Z,10.50
2023-02-11T23:26:41.909Z,10.50
2023-02-11T23:29:10.215Z,10.50
2023-02-11T23:31:43.952Z,11.10
2023-02-11T23:34:12.844Z,10.50
2023-02-11T23:36:39.738Z,10.50
2023-02-11T23:39:06.793Z,11.70
2023-02-11T23:41:33.766Z,12.30
2023-02-11T23:44:00.818Z,10.50
2023-02-11T23:46:28.069Z,10.50
2023-02-11T23:48:55.308Z,10.50
2023-02-11T23:51:23.632Z,11.20
2023-02-11T23:53:51.428Z,12.20
2023-02-11T23:56:25.033Z,12.40
2023-02-11T23:58:55.284Z,11.80
